Time;durP1;ratioP1;P1;durP2;ratioP2;P2;SDS_P1;SDS_P2;PMS_P1;PMS_P2;Temp;Humidity;BMP_temperature;BMP_pressure;BME280_temperature;BME280_humidity;BME280_pressure;Samples;Min_cycle;Max_cycle;Signal;HPM_P1;HPM_P2
2021/03/08 00:02:16;;;;;;;26.40;14.60;;;;;;;0.94;63.40;100991.41;5051014;28;20112;-70
2021/03/08 00:04:41;;;;;;;24.10;14.40;;;;;;;0.99;63.77;100996.88;5050864;28;20103;-72
2021/03/08 00:07:07;;;;;;;22.10;14.33;;;;;;;1.02;63.26;100987.84;5050814;28;20090;-71
2021/03/08 00:09:32;;;;;;;25.80;14.63;;;;;;;0.99;63.49;100982.50;5050969;28;20025;-69
2021/03/08 00:11:58;;;;;;;19.97;13.67;;;;;;;0.99;63.61;100985.06;5051205;28;20459;-67
2021/03/08 00:14:23;;;;;;;28.60;14.87;;;;;;;1.02;63.34;100975.13;5054160;28;20029;-70
2021/03/08 00:16:49;;;;;;;25.27;14.73;;;;;;;0.92;63.77;100986.22;5054619;28;20033;-72
2021/03/08 00:19:14;;;;;;;23.00;13.93;;;;;;;0.80;63.88;100954.66;5054778;28;20116;-69
2021/03/08 00:21:40;;;;;;;24.67;15.03;;;;;;;0.80;63.76;100958.09;5055004;28;20472;-70
2021/03/08 00:24:06;;;;;;;22.73;13.20;;;;;;;0.77;63.99;100954.41;5051303;28;20040;-67
2021/03/08 00:26:31;;;;;;;24.17;14.57;;;;;;;0.75;64.10;100936.50;5036218;28;20048;-67
2021/03/08 00:28:58;;;;;;;23.83;13.60;;;;;;;0.66;64.01;100914.50;5039455;28;20044;-65
2021/03/08 00:31:23;;;;;;;25.43;14.93;;;;;;;0.89;63.97;100950.34;5053725;28;20057;-69
2021/03/08 00:33:49;;;;;;;31.87;15.43;;;;;;;0.78;62.73;100901.16;5053899;28;20051;-68
2021/03/08 00:36:14;;;;;;;24.53;14.57;;;;;;;1.22;62.01;100947.91;5036236;28;20017;-68
2021/03/08 00:38:40;;;;;;;23.07;14.30;;;;;;;1.20;61.30;100927.44;5054138;28;20025;-69
2021/03/08 00:41:06;;;;;;;20.90;12.80;;;;;;;1.29;60.79;100935.81;5053638;28;20480;-68
2021/03/08 00:43:31;;;;;;;21.93;14.03;;;;;;;1.43;60.79;100944.59;5053555;28;20052;-69
2021/03/08 00:45:57;;;;;;;24.03;14.17;;;;;;;1.48;60.83;100944.06;5052705;28;20072;-70
2021/03/08 00:48:22;;;;;;;55.20;23.67;;;;;;;1.49;61.06;100933.13;5002033;28;20515;-66
2021/03/08 00:50:48;;;;;;;24.40;14.40;;;;;;;1.52;59.75;100933.38;5052737;28;20036;-69
2021/03/08 00:53:13;;;;;;;28.77;15.77;;;;;;;1.32;59.27;100924.13;5053045;28;20025;-69
2021/03/08 00:55:39;;;;;;;31.13;16.97;;;;;;;1.01;59.96;100881.84;5053146;28;20098;-68
2021/03/08 00:58:04;;;;;;;25.60;16.10;;;;;;;1.19;59.82;100904.44;5052819;28;20055;-68
2021/03/08 01:00:30;;;;;;;24.63;15.63;;;;;;;1.16;60.35;100897.47;5053440;28;20142;-70
2021/03/08 01:02:56;;;;;;;26.83;15.67;;;;;;;1.32;59.93;100916.50;5052797;28;20070;-68
2021/03/08 01:05:23;;;;;;;23.10;15.23;;;;;;;1.35;60.47;100915.09;5053108;28;20484;-68
2021/03/08 01:07:49;;;;;;;26.30;15.33;;;;;;;1.14;60.39;100878.63;5053461;28;20103;-68
2021/03/08 01:10:18;;;;;;;25.60;16.93;;;;;;;0.69;60.15;100806.38;5050465;28;20028;-65
2021/03/08 01:12:44;;;;;;;25.05;15.57;;;;;;;1.06;60.41;100879.66;5053788;28;20053;-67
2021/03/08 01:15:10;;;;;;;27.80;16.40;;;;;;;1.06;61.23;100885.66;5053350;28;20162;-66
2021/03/08 01:17:37;;;;;;;31.57;18.83;;;;;;;1.08;60.95;100870.50;5053123;28;20025;-67
2021/03/08 01:20:09;;;;;;;27.67;17.53;;;;;;;1.20;61.38;100891.84;5050152;28;20029;-67
2021/03/08 01:22:34;;;;;;;27.83;17.40;;;;;;;0.96;62.37;100872.94;5035351;28;20025;-69
2021/03/08 01:25:00;;;;;;;30.67;17.83;;;;;;;1.09;62.02;100890.09;5035220;28;20435;-68
2021/03/08 01:27:25;;;;;;;32.03;17.30;;;;;;;0.85;63.79;100896.56;5036437;28;20033;-68
2021/03/08 01:29:51;;;;;;;27.53;16.80;;;;;;;0.74;64.01;100885.53;5034490;28;20029;-66
2021/03/08 01:32:16;;;;;;;30.10;16.50;;;;;;;0.85;64.38;100878.78;5034118;28;20030;-65
2021/03/08 01:34:41;;;;;;;30.57;17.00;;;;;;;0.84;64.38;100890.63;5016896;28;20073;-65
2021/03/08 01:37:07;;;;;;;26.93;16.60;;;;;;;0.80;64.52;100876.75;5032890;28;20071;-67
2021/03/08 01:39:32;;;;;;;33.73;18.27;;;;;;;0.72;64.90;100887.06;5036080;28;20024;-69
2021/03/08 01:41:58;;;;;;;32.20;17.23;;;;;;;0.58;64.94;100879.16;5052401;28;20041;-68
2021/03/08 01:44:23;;;;;;;27.57;15.30;;;;;;;0.46;64.69;100853.66;5052109;28;20029;-69
2021/03/08 01:46:50;;;;;;;24.83;15.40;;;;;;;0.44;64.80;100872.06;5031714;28;20025;-68
2021/03/08 01:49:16;;;;;;;24.73;14.47;;;;;;;0.30;64.74;100883.59;5045918;28;20082;-67
2021/03/08 01:51:43;;;;;;;24.20;14.60;;;;;;;0.10;65.39;100870.09;5035973;28;20029;-68
2021/03/08 01:54:09;;;;;;;33.70;17.37;;;;;;;-0.05;65.79;100866.22;5032634;28;20116;-70
2021/03/08 01:56:35;;;;;;;28.03;14.30;;;;;;;-0.28;66.91;100852.47;5033288;28;20495;-70
2021/03/08 01:59:00;;;;;;;74.40;30.47;;;;;;;-0.28;67.43;100852.47;5032518;28;20389;-70
2021/03/08 02:01:26;;;;;;;26.87;15.13;;;;;;;-0.02;66.99;100874.13;5037230;28;20079;-69
2021/03/08 02:03:51;;;;;;;30.77;16.43;;;;;;;-0.29;66.74;100837.13;5034685;28;20021;-70
2021/03/08 02:06:17;;;;;;;25.37;15.50;;;;;;;-0.05;67.09;100872.22;5033739;28;20025;-69
2021/03/08 02:08:42;;;;;;;24.90;15.30;;;;;;;-0.05;67.11;100861.16;5051859;28;20102;-68
2021/03/08 02:11:08;;;;;;;31.80;24.60;;;;;;;0.11;67.03;100873.50;5051404;28;20025;-69
2021/03/08 02:13:34;;;;;;;22.43;14.97;;;;;;;0.04;66.67;100877.19;5047020;28;20068;-67
2021/03/08 02:16:05;;;;;;;21.03;14.13;;;;;;;-0.11;66.98;100853.94;5047619;28;20116;-69
2021/03/08 02:18:33;;;;;;;21.43;13.90;;;;;;;-0.13;67.33;100867.25;5047609;28;20411;-70
2021/03/08 02:21:17;;;;;;;21.10;12.60;;;;;;;-0.05;66.99;100877.28;5037788;28;20033;-66
2021/03/08 02:24:04;;;;;;;21.07;12.87;;;;;;;-0.11;67.30;100886.00;5035309;28;20076;-71
2021/03/08 02:26:51;;;;;;;17.37;12.67;;;;;;;-0.20;67.99;100887.00;5033299;28;20033;-70
2021/03/08 02:29:50;;;;;;;19.00;12.60;;;;;;;-0.69;69.22;100878.50;5034319;28;20029;-70
2021/03/08 02:32:23;;;;;;;19.80;11.90;;;;;;;-0.84;69.35;100877.16;5033127;28;20404;-69
2021/03/08 02:35:13;;;;;;;21.17;12.87;;;;;;;-0.87;69.35;100871.84;5031901;28;20034;-69
2021/03/08 02:37:51;;;;;;;24.30;14.67;;;;;;;-1.00;68.64;100822.59;5033418;28;20028;-69
2021/03/08 02:40:26;;;;;;;28.80;17.60;;;;;;;-0.85;68.54;100822.16;5015540;28;20025;-70
2021/03/08 02:42:55;;;;;;;49.53;25.43;;;;;;;-0.34;68.06;100874.75;5034988;28;20408;-70
2021/03/08 02:45:26;;;;;;;27.13;18.15;;;;;;;-0.25;66.93;100861.97;5032882;28;20416;-70
2021/03/08 02:47:53;;;;;;;31.80;19.13;;;;;;;-0.31;66.81;100867.44;5033082;28;20025;-70
2021/03/08 02:50:23;;;;;;;34.10;20.10;;;;;;;-0.51;67.05;100835.28;4989627;28;20038;-69
2021/03/08 02:52:59;;;;;;;32.07;19.03;;;;;;;-0.66;66.86;100792.59;4989165;28;20034;-67
2021/03/08 02:55:31;;;;;;;30.80;20.40;;;;;;;-0.14;66.37;100857.84;4991868;28;20445;-69
2021/03/08 02:57:59;;;;;;;22.07;14.07;;;;;;;0.01;65.44;100863.34;4987369;28;20161;-70
2021/03/08 03:00:25;;;;;;;20.87;12.30;;;;;;;0.02;64.18;100863.47;4991012;28;20034;-70
2021/03/08 03:02:51;;;;;;;24.20;14.63;;;;;;;0.22;63.66;100870.22;4991372;28;20572;-70
2021/03/08 03:05:18;;;;;;;25.40;15.40;;;;;;;0.16;63.43;100867.16;4990067;28;20038;-70
2021/03/08 03:07:47;;;;;;;27.37;16.13;;;;;;;0.11;63.14;100870.97;4989855;28;20030;-70
2021/03/08 03:10:14;;;;;;;21.93;12.77;;;;;;;0.12;63.86;100883.78;4960026;28;20034;-67
2021/03/08 03:12:42;;;;;;;16.93;10.87;;;;;;;0.06;64.23;100888.34;4990188;28;20104;-66
2021/03/08 03:15:11;;;;;;;15.87;10.53;;;;;;;-0.06;65.25;100877.16;4990436;28;20056;-66
2021/03/08 03:17:38;;;;;;;16.20;10.27;;;;;;;-0.34;65.13;100846.84;4976598;28;20088;-70
2021/03/08 03:20:08;;;;;;;16.23;10.43;;;;;;;-0.18;65.51;100892.22;4990570;28;20038;-68
2021/03/08 03:22:35;;;;;;;62.43;20.87;;;;;;;-0.28;65.64;100877.84;5033133;28;20025;-69
2021/03/08 03:25:01;;;;;;;17.93;10.63;;;;;;;-0.27;65.84;100873.66;5031839;28;20037;-66
2021/03/08 03:27:28;;;;;;;19.60;11.00;;;;;;;-0.50;65.74;100821.81;5032832;28;20086;-69
2021/03/08 03:29:55;;;;;;;15.70;10.03;;;;;;;-0.23;64.67;100863.91;5031511;28;20025;-69
2021/03/08 03:32:21;;;;;;;35.53;14.53;;;;;;;-0.20;64.68;100869.25;5043763;28;20408;-68
2021/03/08 03:34:48;;;;;;;24.23;14.63;;;;;;;-0.39;65.14;100855.72;5051126;28;20028;-66
2021/03/08 03:37:22;;;;;;;98.23;30.37;;;;;;;-0.27;65.38;100872.00;5050584;28;20039;-72
2021/03/08 03:39:48;;;;;;;23.90;13.80;;;;;;;-0.25;65.37;100855.28;5051156;28;20388;-66
2021/03/08 03:42:17;;;;;;;21.13;11.43;;;;;;;-0.39;65.02;100848.97;5050801;28;20036;-70
2021/03/08 03:44:43;;;;;;;16.83;10.70;;;;;;;-0.29;64.18;100852.34;5050697;28;20037;-65
2021/03/08 03:47:11;;;;;;;19.43;10.70;;;;;;;-0.24;63.80;100851.97;5050664;28;20564;-66
2021/03/08 03:49:36;;;;;;;17.13;11.77;;;;;;;-0.36;65.33;100841.66;5050777;28;20396;-68
2021/03/08 03:52:03;;;;;;;16.77;11.30;;;;;;;-0.37;65.68;100849.16;5051149;28;20037;-68
2021/03/08 03:54:29;;;;;;;13.83;10.90;;;;;;;-0.34;66.23;100862.06;5050303;28;20484;-65
2021/03/08 03:57:07;;;;;;;20.23;12.50;;;;;;;-0.36;66.16;100846.72;5050832;28;20032;-65
2021/03/08 03:59:35;;;;;;;18.33;11.83;;;;;;;-0.23;65.37;100865.56;5050323;28;20537;-67
2021/03/08 04:02:08;;;;;;;18.17;10.87;;;;;;;-0.30;64.81;100864.13;5050625;28;20468;-64
2021/03/08 04:04:39;;;;;;;20.60;10.73;;;;;;;-0.40;63.44;100856.47;5050331;28;20048;-65
2021/03/08 04:07:08;;;;;;;24.17;11.83;;;;;;;-0.66;64.72;100858.53;5040171;28;20449;-65
2021/03/08 04:09:37;;;;;;;15.70;9.00;;;;;;;-1.21;66.58;100861.19;5050577;28;20033;-66
2021/03/08 04:12:07;;;;;;;21.53;10.83;;;;;;;-1.34;68.02;100876.94;5050623;28;20163;-65
2021/03/08 04:14:33;;;;;;;21.80;10.97;;;;;;;-1.36;67.77;100858.16;5050944;28;20029;-64
2021/03/08 04:17:00;;;;;;;17.77;10.97;;;;;;;-1.29;67.77;100864.69;5050426;28;20033;-68
2021/03/08 04:19:30;;;;;;;20.30;11.40;;;;;;;-1.41;67.19;100813.81;5050592;28;20020;-70
2021/03/08 04:22:06;;;;;;;19.13;11.37;;;;;;;-1.17;66.48;100843.88;5050538;28;20023;-66
2021/03/08 04:24:32;;;;;;;19.03;11.60;;;;;;;-1.09;65.64;100857.25;5050413;28;20056;-66
2021/03/08 04:27:05;;;;;;;23.97;13.00;;;;;;;-1.15;65.73;100841.47;5050569;28;20025;-69
2021/03/08 04:29:36;;;;;;;25.80;13.93;;;;;;;-1.05;66.16;100855.88;5050367;28;20395;-66
2021/03/08 04:32:02;;;;;;;33.00;16.27;;;;;;;-1.15;66.25;100844.03;5032681;28;20131;-65
2021/03/08 04:34:31;;;;;;;57.87;24.30;;;;;;;-1.09;66.35;100858.91;5049919;28;20223;-68
2021/03/08 04:36:58;;;;;;;45.58;19.75;;;;;;;-1.25;66.74;100847.38;5050241;28;20021;-65
2021/03/08 04:39:26;;;;;;;47.87;22.20;;;;;;;-1.29;67.12;100855.44;5050298;28;20159;-70
2021/03/08 04:41:53;;;;;;;45.57;21.77;;;;;;;-1.23;67.30;100835.75;5050383;28;20025;-66
2021/03/08 04:44:19;;;;;;;38.87;18.53;;;;;;;-1.08;66.71;100843.81;5032471;28;20025;-69
2021/03/08 04:46:45;;;;;;;27.23;14.97;;;;;;;-1.27;66.64;100835.31;5050553;28;20036;-71
2021/03/08 04:49:11;;;;;;;24.87;14.23;;;;;;;-1.50;68.03;100832.47;5050485;28;20024;-68
2021/03/08 04:51:37;;;;;;;27.77;13.67;;;;;;;-1.49;68.43;100846.06;5049616;28;20047;-66
2021/03/08 04:54:04;;;;;;;27.63;14.67;;;;;;;-1.47;68.89;100824.28;5050401;28;20028;-65
2021/03/08 04:56:32;;;;;;;21.13;13.00;;;;;;;-1.26;69.00;100827.84;5050072;28;20017;-69
2021/03/08 04:58:58;;;;;;;94.77;32.63;;;;;;;-1.39;69.02;100777.75;5050656;28;20036;-72
2021/03/08 05:01:26;;;;;;;122.60;42.93;;;;;;;-0.98;67.58;100827.78;5053526;28;20400;-68
2021/03/08 05:03:53;;;;;;;22.57;14.43;;;;;;;-0.92;68.20;100830.88;5053374;28;20021;-69
2021/03/08 05:06:20;;;;;;;20.27;11.67;;;;;;;-1.38;68.96;100782.06;5054046;28;20029;-69
2021/03/08 05:08:47;;;;;;;20.40;11.57;;;;;;;-1.28;69.72;100831.00;5053701;28;20527;-71
2021/03/08 05:11:12;;;;;;;17.13;11.13;;;;;;;-1.09;69.94;100836.97;5053882;28;20083;-66
2021/03/08 05:13:39;;;;;;;22.93;11.30;;;;;;;-0.97;69.74;100821.97;5053289;28;20021;-65
2021/03/08 05:16:08;;;;;;;18.10;10.70;;;;;;;-0.75;68.94;100834.00;5052692;28;20106;-67
2021/03/08 05:18:34;;;;;;;20.23;11.10;;;;;;;-0.70;68.14;100840.34;5049446;28;20116;-66
2021/03/08 05:21:02;;;;;;;32.30;18.93;;;;;;;-0.64;68.29;100833.28;5052624;28;20033;-66
2021/03/08 05:23:29;;;;;;;32.50;19.17;;;;;;;-0.57;68.18;100822.94;5053105;28;20025;-69
2021/03/08 05:25:56;;;;;;;29.73;16.50;;;;;;;-0.42;67.54;100830.97;5035012;28;20439;-71
2021/03/08 05:28:21;;;;;;;25.30;14.37;;;;;;;-0.51;68.06;100831.06;5035244;28;20028;-72
2021/03/08 05:30:52;;;;;;;18.83;12.93;;;;;;;-0.36;68.39;100840.78;5053443;28;20075;-65
2021/03/08 05:33:25;;;;;;;24.27;14.00;;;;;;;-0.72;68.74;100852.03;5053219;28;20099;-66
2021/03/08 05:35:54;;;;;;;26.13;13.53;;;;;;;-1.07;70.43;100864.97;5052730;28;20118;-65
2021/03/08 05:38:25;;;;;;;18.80;13.00;;;;;;;-1.63;70.80;100830.47;5053122;28;20485;-66
2021/03/08 05:41:09;;;;;;;33.00;16.97;;;;;;;-1.79;72.08;100885.53;5052692;28;20416;-65
2021/03/08 05:43:36;;;;;;;31.60;18.57;;;;;;;-1.58;70.93;100886.63;5052993;28;20029;-65
2021/03/08 05:46:14;;;;;;;35.47;20.47;;;;;;;-1.57;70.99;100884.97;5052504;28;20578;-65
2021/03/08 05:49:17;;;;;;;42.43;22.37;;;;;;;-1.52;70.47;100894.78;5051921;28;20039;-67
2021/03/08 05:52:04;;;;;;;36.00;19.27;;;;;;;-1.64;70.06;100886.94;5050017;28;20025;-68
2021/03/08 05:54:58;;;;;;;33.93;17.53;;;;;;;-1.68;71.16;100889.06;5051891;28;20028;-66
2021/03/08 05:57:46;;;;;;;29.47;15.13;;;;;;;-1.74;71.89;100891.03;5049533;28;20033;-68
2021/03/08 06:00:33;;;;;;;26.07;15.17;;;;;;;-1.67;72.06;100891.72;5053399;28;20404;-66
2021/03/08 06:03:27;;;;;;;34.30;15.87;;;;;;;-1.41;71.77;100874.59;5052595;28;20079;-68
2021/03/08 06:06:42;;;;;;;27.87;14.77;;;;;;;-0.98;71.74;100870.88;5048082;28;20067;-68
2021/03/08 06:09:25;;;;;;;28.67;14.40;;;;;;;-0.58;71.63;100878.59;5047756;28;20559;-68
2021/03/08 06:12:06;;;;;;;22.50;12.87;;;;;;;-0.30;70.84;100884.41;5049846;28;20032;-68
2021/03/08 06:14:40;;;;;;;20.27;13.07;;;;;;;-0.08;70.22;100873.59;5051092;28;20082;-68
2021/03/08 06:17:10;;;;;;;20.80;12.43;;;;;;;0.03;69.55;100875.41;5052224;28;20083;-69
2021/03/08 06:19:38;;;;;;;19.08;11.35;;;;;;;0.26;69.79;100884.09;5052021;28;20028;-68
2021/03/08 06:22:07;;;;;;;20.97;12.40;;;;;;;0.27;69.26;100850.31;5051567;28;20487;-69
2021/03/08 06:24:36;;;;;;;15.60;10.38;;;;;;;0.56;68.44;100877.25;5039644;28;20068;-69
2021/03/08 06:27:02;;;;;;;22.20;13.73;;;;;;;0.50;68.37;100843.72;5051525;28;20033;-68
2021/03/08 06:29:31;;;;;;;21.30;13.10;;;;;;;0.86;67.93;100862.78;5051602;28;20032;-69
2021/03/08 06:31:57;;;;;;;24.57;15.80;;;;;;;0.93;67.98;100857.44;5051856;28;20029;-69
2021/03/08 06:34:23;;;;;;;35.57;18.17;;;;;;;0.97;68.04;100859.44;5051808;28;20288;-69
2021/03/08 06:36:49;;;;;;;44.20;19.83;;;;;;;0.94;68.64;100864.31;5016328;28;20439;-69
2021/03/08 06:39:14;;;;;;;194.17;55.50;;;;;;;0.90;69.21;100817.41;5051162;28;20104;-68
2021/03/08 06:41:40;;;;;;;21.83;13.17;;;;;;;1.04;69.14;100813.44;5052311;28;20032;-69
2021/03/08 06:44:06;;;;;;;16.50;11.53;;;;;;;1.49;69.23;100856.81;5049355;28;20029;-68
2021/03/08 06:46:32;;;;;;;18.57;11.60;;;;;;;1.55;68.92;100844.56;5051603;28;20033;-69
2021/03/08 06:49:01;;;;;;;22.40;12.60;;;;;;;1.82;69.24;100844.94;5051507;28;20410;-69
2021/03/08 06:51:27;;;;;;;18.20;11.45;;;;;;;2.02;68.91;100839.75;5046936;28;20024;-68
2021/03/08 06:53:52;;;;;;;17.00;11.50;;;;;;;2.13;69.20;100835.50;5033130;28;20045;-67
2021/03/08 06:56:21;;;;;;;17.50;11.43;;;;;;;2.23;68.31;100824.31;5050051;28;20032;-67
2021/03/08 06:59:06;;;;;;;15.98;10.60;;;;;;;2.39;68.66;100837.47;5051400;28;20079;-66
2021/03/08 07:01:33;;;;;;;19.73;10.80;;;;;;;2.46;68.13;100826.06;5051744;28;20044;-66
2021/03/08 07:04:00;;;;;;;17.63;11.43;;;;;;;2.71;68.30;100840.66;5050798;28;20041;-69
2021/03/08 07:06:26;;;;;;;17.67;11.00;;;;;;;2.86;67.72;100844.31;5039867;28;20404;-68
2021/03/08 07:09:02;;;;;;;17.50;11.10;;;;;;;2.89;67.38;100838.56;5050986;28;20503;-69
2021/03/08 07:11:28;;;;;;;87.53;27.63;;;;;;;2.87;67.03;100820.59;5050721;28;20107;-69
2021/03/08 07:13:54;;;;;;;16.33;11.33;;;;;;;2.63;67.93;100824.78;5051234;28;20055;-69
2021/03/08 07:16:19;;;;;;;16.23;10.93;;;;;;;2.53;68.72;100829.94;5050914;28;20399;-69
2021/03/08 07:18:45;;;;;;;17.00;11.93;;;;;;;2.92;68.41;100843.91;5050999;28;20029;-69
2021/03/08 07:21:17;;;;;;;18.23;10.97;;;;;;;3.23;67.40;100854.66;5051152;28;20064;-69
2021/03/08 07:23:43;;;;;;;17.07;9.90;;;;;;;3.04;68.09;100821.84;5051075;28;20119;-68
2021/03/08 07:26:15;;;;;;;16.53;10.57;;;;;;;3.19;68.16;100844.13;5050894;28;20044;-69
2021/03/08 07:28:41;;;;;;;16.97;9.47;;;;;;;3.50;67.04;100848.88;5051013;28;20029;-68
2021/03/08 07:31:07;;;;;;;15.67;11.03;;;;;;;3.49;67.24;100842.00;5050994;28;20035;-68
2021/03/08 07:33:33;;;;;;;17.83;10.67;;;;;;;3.57;67.24;100840.91;5051348;28;20029;-68
2021/03/08 07:35:59;;;;;;;16.80;10.77;;;;;;;3.83;67.23;100858.03;5050250;28;20110;-68
2021/03/08 07:38:27;;;;;;;22.80;13.20;;;;;;;4.04;65.45;100843.34;5051256;28;20103;-69
2021/03/08 07:41:07;;;;;;;17.90;11.60;;;;;;;4.08;65.12;100828.22;5050523;28;20047;-66
2021/03/08 07:43:33;;;;;;;16.67;11.37;;;;;;;4.34;64.80;100823.22;5046717;28;20029;-68
2021/03/08 07:45:58;;;;;;;14.70;10.80;;;;;;;4.40;64.85;100829.50;5016858;28;20056;-69
2021/03/08 07:48:24;;;;;;;16.17;11.20;;;;;;;4.27;65.31;100808.22;5050369;28;20112;-69
2021/03/08 07:50:51;;;;;;;17.00;11.70;;;;;;;4.42;65.13;100831.38;5050875;28;20032;-69
2021/03/08 07:53:31;;;;;;;16.63;11.93;;;;;;;4.01;67.41;100838.03;5050333;28;20025;-69
2021/03/08 07:55:58;;;;;;;19.23;12.18;;;;;;;4.32;66.81;100819.66;5050716;28;20064;-69
2021/03/08 07:58:29;;;;;;;20.10;12.63;;;;;;;4.28;65.54;100787.00;5050705;28;20028;-69
2021/03/08 08:00:56;;;;;;;18.40;12.80;;;;;;;4.49;65.26;100807.13;5050249;28;20017;-69
2021/03/08 08:03:22;;;;;;;18.90;12.23;;;;;;;4.48;65.24;100792.59;5050205;28;20040;-69
2021/03/08 08:05:53;;;;;;;20.40;12.87;;;;;;;4.53;64.87;100774.19;5050818;28;20017;-69
2021/03/08 08:08:20;;;;;;;23.90;14.27;;;;;;;4.68;65.45;100769.19;5050400;28;20028;-69
2021/03/08 08:10:52;;;;;;;20.08;13.07;;;;;;;5.00;63.93;100797.69;5050497;28;20017;-68
2021/03/08 08:13:21;;;;;;;114.18;42.42;;;;;;;5.05;63.06;100769.81;5050025;28;20519;-69
2021/03/08 08:15:48;;;;;;;28.05;18.08;;;;;;;5.06;62.50;100740.88;5050502;28;20032;-69
2021/03/08 08:18:17;;;;;;;20.15;13.52;;;;;;;5.46;62.21;100767.31;5049902;28;20511;-69
2021/03/08 08:20:44;;;;;;;45.72;20.67;;;;;;;5.51;62.39;100775.28;5050391;28;20108;-69
2021/03/08 08:23:13;;;;;;;92.40;37.95;;;;;;;5.51;62.26;100753.09;5050327;28;20029;-68
2021/03/08 08:25:39;;;;;;;21.13;14.30;;;;;;;5.23;62.62;100754.75;5042728;28;20138;-69
2021/03/08 08:28:04;;;;;;;22.30;13.82;;;;;;;5.33;63.11;100770.78;5049254;28;20029;-68
2021/03/08 08:30:30;;;;;;;21.15;12.95;;;;;;;5.58;62.51;100756.94;5049040;28;20040;-69
2021/03/08 08:32:59;;;;;;;22.52;14.52;;;;;;;5.52;61.48;100730.97;5014317;28;20467;-69
2021/03/08 08:35:33;;;;;;;22.52;14.05;;;;;;;5.89;61.19;100755.38;5044343;28;20494;-65
2021/03/08 08:38:07;;;;;;;21.00;15.40;;;;;;;5.95;60.77;100748.03;5046189;28;20034;-69
2021/03/08 08:40:40;;;;;;;23.00;15.68;;;;;;;6.09;61.15;100733.53;5043062;28;20025;-67
2021/03/08 08:43:14;;;;;;;22.98;15.75;;;;;;;6.30;61.37;100746.72;5045397;28;20040;-65
2021/03/08 08:45:48;;;;;;;23.67;16.27;;;;;;;6.47;60.20;100737.44;5045383;28;20047;-72
2021/03/08 08:48:14;;;;;;;23.45;15.60;;;;;;;6.36;59.76;100711.19;5053528;28;20061;-67
2021/03/08 08:50:45;;;;;;;22.48;15.68;;;;;;;6.57;58.76;100738.88;5048272;28;20057;-69
2021/03/08 08:53:11;;;;;;;24.92;15.93;;;;;;;6.59;58.97;100730.47;5052094;28;20120;-69
2021/03/08 08:55:36;;;;;;;24.92;16.55;;;;;;;6.72;59.87;100744.84;5018914;28;20120;-69
2021/03/08 08:58:53;;;;;;;23.02;15.65;;;;;;;6.81;58.73;100734.22;5054171;28;20094;-69
2021/03/08 09:01:28;;;;;;;26.35;17.15;;;;;;;6.86;58.33;100739.63;4973017;28;20035;-69
2021/03/08 09:04:04;;;;;;;21.90;15.32;;;;;;;6.77;58.08;100725.47;4973040;28;20426;-69
2021/03/08 09:06:38;;;;;;;22.02;15.55;;;;;;;7.02;59.08;100733.69;4973268;28;20606;-69
2021/03/08 09:09:04;;;;;;;20.90;15.45;;;;;;;7.23;57.44;100722.00;4973191;28;20581;-69
2021/03/08 09:11:43;;;;;;;24.23;15.32;;;;;;;7.19;57.23;100712.38;4973193;28;20130;-69
2021/03/08 09:14:34;;;;;;;20.35;14.65;;;;;;;7.36;56.17;100707.25;4973058;28;20037;-69
2021/03/08 09:17:18;;;;;;;24.38;16.50;;;;;;;7.45;56.65;100700.03;4972822;28;20045;-69
2021/03/08 09:19:57;;;;;;;17.85;13.00;;;;;;;7.68;55.15;100701.25;4972779;28;20030;-69
2021/03/08 09:22:22;;;;;;;20.33;13.87;;;;;;;7.79;54.46;100696.69;4972935;28;20047;-69
2021/03/08 09:24:49;;;;;;;20.65;14.07;;;;;;;7.69;55.00;100659.34;4972754;28;20035;-69
2021/03/08 09:27:25;;;;;;;19.73;13.32;;;;;;;7.97;55.66;100681.31;4972491;28;20491;-69
2021/03/08 09:29:52;;;;;;;17.58;13.10;;;;;;;7.98;55.51;100679.63;4956917;28;20510;-69
2021/03/08 09:32:18;;;;;;;21.25;13.25;;;;;;;8.09;56.32;100673.34;4972873;28;20045;-69
2021/03/08 09:34:46;;;;;;;18.33;13.52;;;;;;;8.28;53.93;100687.13;4973359;28;20134;-68
2021/03/08 09:37:13;;;;;;;17.33;12.98;;;;;;;8.30;54.14;100688.97;5011292;28;20064;-69
2021/03/08 09:39:48;;;;;;;16.60;13.07;;;;;;;8.37;54.81;100682.41;5016116;28;20030;-69
2021/03/08 09:42:14;;;;;;;17.88;12.82;;;;;;;8.40;53.24;100687.72;5034640;28;20030;-69
2021/03/08 09:44:40;;;;;;;15.90;12.75;;;;;;;8.18;53.97;100686.66;5033524;28;20493;-69
2021/03/08 09:47:06;;;;;;;18.63;13.07;;;;;;;8.38;53.75;100682.50;5033605;28;20037;-71
2021/03/08 09:49:54;;;;;;;18.45;14.15;;;;;;;8.34;55.21;100642.00;5033984;28;20040;-69
2021/03/08 09:52:51;;;;;;;19.15;13.38;;;;;;;8.66;53.81;100660.72;5044061;28;20036;-68
2021/03/08 09:55:28;;;;;;;19.95;13.38;;;;;;;8.70;52.46;100660.03;4965630;28;20525;-66
2021/03/08 09:57:54;;;;;;;23.85;17.05;;;;;;;9.00;53.17;100666.56;4962994;28;20070;-66
2021/03/08 10:00:27;;;;;;;16.65;11.55;;;;;;;9.15;52.82;100659.53;4973285;28;20066;-67
2021/03/08 10:03:03;;;;;;;14.30;11.55;;;;;;;8.94;51.88;100633.69;4973105;28;20121;-69
2021/03/08 10:05:49;;;;;;;15.00;10.65;;;;;;;9.29;52.32;100643.84;4948834;28;20513;-68
2021/03/08 10:08:16;;;;;;;15.10;10.73;;;;;;;9.42;51.49;100647.84;4964468;28;20038;-66
2021/03/08 10:10:52;;;;;;;13.68;8.95;;;;;;;9.54;51.45;100644.13;4961480;28;20426;-68
2021/03/08 10:13:19;;;;;;;14.27;9.88;;;;;;;9.72;51.28;100627.69;4964587;28;20038;-66
2021/03/08 10:15:50;;;;;;;14.95;10.57;;;;;;;10.01;50.37;100626.31;4962955;28;21515;-66
2021/03/08 10:18:18;;;;;;;15.15;10.32;;;;;;;10.19;50.20;100627.91;4964528;28;20134;-67
2021/03/08 10:20:56;;;;;;;15.02;10.50;;;;;;;10.04;48.31;100621.31;4962421;28;20114;-68
2021/03/08 10:23:24;;;;;;;14.15;10.85;;;;;;;10.24;46.31;100610.03;4963903;28;20026;-69
2021/03/08 10:25:50;;;;;;;15.98;11.77;;;;;;;10.27;46.66;100612.72;4962570;28;20039;-66
2021/03/08 10:28:16;;;;;;;17.02;10.65;;;;;;;10.15;47.44;100587.31;4945475;28;20043;-68
2021/03/08 10:30:42;;;;;;;16.02;10.35;;;;;;;10.43;46.23;100597.09;4961806;28;20430;-66
2021/03/08 10:33:12;;;;;;;14.50;9.45;;;;;;;10.10;47.25;100587.13;5032721;28;20456;-65
2021/03/08 10:35:53;;;;;;;;;;;;;;;10.43;49.48;100584.19;5033088;28;20029;-66
2021/03/08 10:38:51;;;;;;;16.13;10.00;;;;;;;10.79;49.90;100580.34;5033105;28;19909;-67
2021/03/08 10:41:19;;;;;;;11.88;9.45;;;;;;;10.78;48.57;100573.44;4952591;28;20047;-68
2021/03/08 10:43:45;;;;;;;13.63;9.93;;;;;;;10.67;48.44;100542.06;4952229;29;20151;-69
2021/03/08 10:46:10;;;;;;;13.15;9.63;;;;;;;11.03;48.63;100567.50;4919500;29;20431;-68
2021/03/08 10:48:36;;;;;;;13.00;9.32;;;;;;;11.31;48.16;100566.78;4932963;29;20422;-67
2021/03/08 10:51:01;;;;;;;11.13;8.45;;;;;;;11.32;47.75;100557.31;4936482;29;20507;-66
2021/03/08 10:53:27;;;;;;;15.60;9.70;;;;;;;11.53;46.42;100546.84;4946529;29;20039;-66
2021/03/08 10:55:53;;;;;;;12.82;8.80;;;;;;;11.67;46.50;100555.06;4951802;29;20658;-66
2021/03/08 10:58:34;;;;;;;14.77;9.82;;;;;;;11.38;45.99;100477.41;4941985;28;20071;-69
2021/03/08 11:01:09;;;;;;;12.55;9.18;;;;;;;11.82;45.41;100534.91;4941001;29;20027;-66
2021/03/08 11:03:35;;;;;;;13.70;9.13;;;;;;;11.79;45.13;100529.63;4944349;29;20455;-70
2021/03/08 11:06:09;;;;;;;12.80;9.00;;;;;;;11.80;47.12;100514.97;4944354;28;20794;-66
2021/03/08 11:08:38;;;;;;;13.18;9.60;;;;;;;11.99;45.31;100516.50;4944517;28;20047;-67
2021/03/08 11:11:27;;;;;;;17.52;12.65;;;;;;;12.20;45.11;100513.69;4953891;29;20032;-69
2021/03/08 11:13:58;;;;;;;13.32;9.88;;;;;;;12.21;45.14;100507.69;4948225;29;20039;-67
2021/03/08 11:16:23;;;;;;;14.30;9.50;;;;;;;12.24;44.94;100488.78;4942707;29;20027;-68
2021/03/08 11:18:50;;;;;;;12.07;8.35;;;;;;;12.30;45.32;100491.56;4995579;28;20140;-66
2021/03/08 11:21:28;;;;;;;12.32;9.27;;;;;;;12.29;44.84;100487.22;5009973;28;20437;-67
2021/03/08 11:24:13;;;;;;;13.55;8.27;;;;;;;12.29;45.65;100487.22;5012077;28;20037;-71
2021/03/08 11:26:39;;;;;;;12.25;9.23;;;;;;;12.32;43.91;100482.13;5005047;28;20030;-68
2021/03/08 11:29:04;;;;;;;44.80;23.13;;;;;;;12.34;44.90;100466.66;5009069;28;20033;-74